IGO3235 VECC-VIDP
Flight info
| Callsign | IGO3235 |
|---|---|
| Flight time | N/A |
| Altitude | 34000 |
| Route | TEPAL2C TEPAL R460 LKN M890 JAL JAL6A |
| Aircraft | A20N/M-SDE2E3FGHIRWXY/LB1 |
Departure
| Time | 2026-04-22 08:12 |
|---|---|
| Airport | Netaji Subhash Chandra Bose International Airport (VECC) |
Arrival
| Time | N/A |
|---|---|
| Airport | Indira Gandhi International Airport (VIDP) |
| Time | Latitude | Longitude | Altitude | Speed | Heading |
|---|---|---|---|---|---|
| 2026-04-22 07:45 | 22.64268 | 88.44046 | 27 ft | 0 kts | 276° |
| 2026-04-22 07:59 | 22.64268 | 88.44054 | 27 ft | 2 kts | 270° |
| 2026-04-22 07:59 | 22.64267 | 88.44071 | 26 ft | 2 kts | 275° |
| 2026-04-22 08:00 | 22.64266 | 88.44089 | 26 ft | 2 kts | 275° |
| 2026-04-22 08:00 | 22.64264 | 88.44106 | 26 ft | 2 kts | 275° |
| 2026-04-22 08:00 | 22.64262 | 88.44124 | 26 ft | 2 kts | 287° |
| 2026-04-22 08:00 | 22.64254 | 88.44139 | 26 ft | 2 kts | 2° |
| 2026-04-22 08:01 | 22.64238 | 88.44136 | 26 ft | 2 kts | 6° |
| 2026-04-22 08:01 | 22.64235 | 88.44136 | 26 ft | 0 kts | 6° |
| 2026-04-22 08:04 | 22.64236 | 88.44136 | 26 ft | 2 kts | 6° |
| 2026-04-22 08:04 | 22.64298 | 88.44143 | 26 ft | 17 kts | 6° |
| 2026-04-22 08:04 | 22.64436 | 88.44159 | 27 ft | 23 kts | 6° |
| 2026-04-22 08:05 | 22.64605 | 88.44180 | 27 ft | 26 kts | 6° |
| 2026-04-22 08:05 | 22.64653 | 88.44186 | 27 ft | 3 kts | 6° |
| 2026-04-22 08:05 | 22.64674 | 88.44256 | 26 ft | 20 kts | 98° |
| 2026-04-22 08:05 | 22.64668 | 88.44330 | 26 ft | 1 kts | 93° |
| 2026-04-22 08:06 | 22.64667 | 88.44335 | 26 ft | 0 kts | 93° |
| 2026-04-22 08:06 | 22.64667 | 88.44339 | 26 ft | 3 kts | 94° |
| 2026-04-22 08:06 | 22.64660 | 88.44418 | 29 ft | 19 kts | 95° |
| 2026-04-22 08:07 | 22.64659 | 88.44464 | 30 ft | 3 kts | 76° |
| 2026-04-22 08:07 | 22.64730 | 88.44482 | 26 ft | 20 kts | 5° |
| 2026-04-22 08:07 | 22.64925 | 88.44505 | 26 ft | 35 kts | 7° |
| 2026-04-22 08:07 | 22.65177 | 88.44536 | 26 ft | 37 kts | 6° |
| 2026-04-22 08:08 | 22.65431 | 88.44564 | 28 ft | 36 kts | 5° |
| 2026-04-22 08:08 | 22.65683 | 88.44593 | 28 ft | 36 kts | 6° |
| 2026-04-22 08:08 | 22.65932 | 88.44624 | 28 ft | 36 kts | 6° |
| 2026-04-22 08:08 | 22.66178 | 88.44652 | 26 ft | 36 kts | 6° |
| 2026-04-22 08:09 | 22.66426 | 88.44681 | 27 ft | 36 kts | 5° |
| 2026-04-22 08:09 | 22.66593 | 88.44790 | 28 ft | 21 kts | 52° |
| 2026-04-22 08:09 | 22.66690 | 88.44911 | 25 ft | 22 kts | 34° |
| 2026-04-22 08:09 | 22.66837 | 88.44938 | 27 ft | 22 kts | 6° |
| 2026-04-22 08:10 | 22.67002 | 88.44951 | 27 ft | 26 kts | 352° |
| 2026-04-22 08:10 | 22.67102 | 88.44971 | 27 ft | 8 kts | 98° |
| 2026-04-22 08:10 | 22.67071 | 88.44970 | 27 ft | 8 kts | 209° |
| 2026-04-22 08:10 | 22.67022 | 88.44958 | 27 ft | 0 kts | 186° |
| 2026-04-22 08:11 | 22.67021 | 88.44958 | 27 ft | 4 kts | 186° |
| 2026-04-22 08:11 | 22.66797 | 88.44932 | 28 ft | 72 kts | 186° |
| 2026-04-22 08:11 | 22.66051 | 88.44842 | 27 ft | 142 kts | 186° |
| 2026-04-22 08:11 | 22.64893 | 88.44688 | 244 ft | 181 kts | 188° |
| 2026-04-22 08:12 | 22.63624 | 88.44502 | 952 ft | 185 kts | 188° |
| 2026-04-22 08:12 | 22.62340 | 88.44323 | 1783 ft | 186 kts | 189° |
| 2026-04-22 08:12 | 22.61140 | 88.43840 | 2734 ft | 187 kts | 214° |
| 2026-04-22 08:12 | 22.60253 | 88.42812 | 3731 ft | 187 kts | 242° |
| 2026-04-22 08:13 | 22.59897 | 88.41487 | 4618 ft | 183 kts | 268° |
| 2026-04-22 08:13 | 22.59982 | 88.40120 | 5359 ft | 186 kts | 276° |
| 2026-04-22 08:13 | 22.60210 | 88.38754 | 6206 ft | 178 kts | 284° |
| 2026-04-22 08:13 | 22.60469 | 88.37508 | 7113 ft | 166 kts | 278° |
| 2026-04-22 08:14 | 22.60546 | 88.36281 | 7862 ft | 161 kts | 268° |
| 2026-04-22 08:14 | 22.60425 | 88.35082 | 8499 ft | 159 kts | 259° |
| 2026-04-22 08:14 | 22.60170 | 88.33914 | 9097 ft | 159 kts | 254° |
| 2026-04-22 08:14 | 22.59852 | 88.32780 | 9648 ft | 159 kts | 252° |
| 2026-04-22 08:15 | 22.59487 | 88.31583 | 9971 ft | 179 kts | 251° |
| 2026-04-22 08:15 | 22.59051 | 88.30177 | 10016 ft | 217 kts | 251° |
| 2026-04-22 08:15 | 22.58534 | 88.28502 | 9998 ft | 253 kts | 251° |
| 2026-04-22 08:15 | 22.58014 | 88.26523 | 10003 ft | 291 kts | 263° |
| 2026-04-22 08:16 | 22.58178 | 88.24278 | 10198 ft | 316 kts | 287° |
| 2026-04-22 08:16 | 22.59100 | 88.22039 | 10587 ft | 334 kts | 296° |
| 2026-04-22 08:16 | 22.60179 | 88.19770 | 11396 ft | 338 kts | 297° |
| 2026-04-22 08:16 | 22.61257 | 88.17518 | 12183 ft | 342 kts | 297° |
| 2026-04-22 08:17 | 22.62352 | 88.15216 | 12950 ft | 346 kts | 297° |
| 2026-04-22 08:17 | 22.63455 | 88.12877 | 13692 ft | 350 kts | 297° |
| 2026-04-22 08:17 | 22.64567 | 88.10502 | 14421 ft | 354 kts | 296° |
| 2026-04-22 08:17 | 22.65671 | 88.08138 | 15120 ft | 357 kts | 296° |
| 2026-04-22 08:18 | 22.66797 | 88.05722 | 15814 ft | 361 kts | 296° |
| 2026-04-22 08:18 | 22.67938 | 88.03272 | 16500 ft | 365 kts | 296° |
| 2026-04-22 08:18 | 22.69075 | 88.00833 | 17156 ft | 369 kts | 296° |
| 2026-04-22 08:18 | 22.70235 | 87.98340 | 17794 ft | 372 kts | 296° |
| 2026-04-22 08:19 | 22.71411 | 87.95812 | 18409 ft | 376 kts | 296° |
| 2026-04-22 08:19 | 22.72597 | 87.93264 | 19016 ft | 379 kts | 296° |
| 2026-04-22 08:19 | 22.73779 | 87.90720 | 19597 ft | 383 kts | 296° |
| 2026-04-22 08:19 | 22.74984 | 87.88126 | 20183 ft | 386 kts | 296° |
| 2026-04-22 08:20 | 22.76198 | 87.85511 | 20743 ft | 390 kts | 296° |
| 2026-04-22 08:20 | 22.77421 | 87.82875 | 21299 ft | 393 kts | 296° |
| 2026-04-22 08:20 | 22.78643 | 87.80242 | 21829 ft | 396 kts | 296° |
| 2026-04-22 08:20 | 22.79890 | 87.77554 | 22362 ft | 399 kts | 296° |
| 2026-04-22 08:21 | 22.81148 | 87.74839 | 22810 ft | 403 kts | 296° |
| 2026-04-22 08:21 | 22.82413 | 87.72107 | 22968 ft | 404 kts | 297° |
| 2026-04-22 08:21 | 22.83816 | 87.69504 | 23112 ft | 407 kts | 304° |
| 2026-04-22 08:21 | 22.85423 | 87.66958 | 23657 ft | 408 kts | 304° |
| 2026-04-22 08:22 | 22.87031 | 87.64382 | 24176 ft | 411 kts | 304° |
| 2026-04-22 08:22 | 22.88613 | 87.61836 | 24626 ft | 414 kts | 304° |
| 2026-04-22 08:22 | 22.90230 | 87.59231 | 25085 ft | 417 kts | 304° |
| 2026-04-22 08:22 | 22.91859 | 87.56608 | 25527 ft | 420 kts | 304° |
| 2026-04-22 08:23 | 22.93510 | 87.53949 | 25954 ft | 423 kts | 304° |
| 2026-04-22 08:23 | 22.95135 | 87.51332 | 26361 ft | 425 kts | 304° |
| 2026-04-22 08:23 | 22.96796 | 87.48657 | 26759 ft | 428 kts | 304° |
| 2026-04-22 08:23 | 22.98478 | 87.45946 | 27150 ft | 431 kts | 304° |
| 2026-04-22 08:24 | 23.00154 | 87.43243 | 27521 ft | 433 kts | 304° |
| 2026-04-22 08:24 | 23.01832 | 87.40536 | 27857 ft | 436 kts | 304° |
| 2026-04-22 08:24 | 23.03529 | 87.37796 | 27980 ft | 438 kts | 303° |
| 2026-04-22 08:24 | 23.05170 | 87.34996 | 28102 ft | 440 kts | 301° |
| 2026-04-22 08:25 | 23.06741 | 87.32172 | 28503 ft | 440 kts | 301° |
| 2026-04-22 08:25 | 23.08324 | 87.29306 | 28851 ft | 442 kts | 301° |
| 2026-04-22 08:25 | 23.09923 | 87.26427 | 29159 ft | 445 kts | 301° |
| 2026-04-22 08:25 | 23.11535 | 87.23541 | 29458 ft | 447 kts | 301° |
| 2026-04-22 08:26 | 23.13160 | 87.20645 | 29761 ft | 449 kts | 301° |
| 2026-04-22 08:26 | 23.14768 | 87.17782 | 30049 ft | 451 kts | 301° |
| 2026-04-22 08:26 | 23.16415 | 87.14851 | 30341 ft | 453 kts | 301° |
| 2026-04-22 08:26 | 23.18067 | 87.11908 | 30633 ft | 455 kts | 301° |
| 2026-04-22 08:27 | 23.19706 | 87.08988 | 30917 ft | 457 kts | 301° |
| 2026-04-22 08:27 | 23.21366 | 87.06028 | 31235 ft | 458 kts | 301° |
| 2026-04-22 08:27 | 23.23029 | 87.03062 | 31604 ft | 458 kts | 301° |
| 2026-04-22 08:27 | 23.24690 | 87.00095 | 31977 ft | 457 kts | 301° |
| 2026-04-22 08:28 | 23.26323 | 86.97179 | 32331 ft | 456 kts | 301° |
| 2026-04-22 08:28 | 23.27975 | 86.94226 | 32679 ft | 456 kts | 301° |
| 2026-04-22 08:28 | 23.29621 | 86.91282 | 33017 ft | 455 kts | 301° |
| 2026-04-22 08:28 | 23.30178 | 86.90285 | 33132 ft | 455 kts | 301° |